sensor_id;sensor_type;location;lat;lon;timestamp;P1;durP1;ratioP1;P2;durP2;ratioP2
15764;SDS011;7983;50.744;7.086;2023-12-28T00:01:45;1.95;;;1.40;;
15764;SDS011;7983;50.744;7.086;2023-12-28T00:04:11;2.10;;;1.20;;
15764;SDS011;7983;50.744;7.086;2023-12-28T00:06:36;1.75;;;1.30;;
15764;SDS011;7983;50.744;7.086;2023-12-28T00:09:02;1.80;;;1.33;;
15764;SDS011;7983;50.744;7.086;2023-12-28T00:11:27;1.85;;;1.35;;
15764;SDS011;7983;50.744;7.086;2023-12-28T00:13:53;1.80;;;1.15;;
15764;SDS011;7983;50.744;7.086;2023-12-28T00:16:19;1.42;;;1.30;;
15764;SDS011;7983;50.744;7.086;2023-12-28T00:18:44;2.15;;;1.30;;
15764;SDS011;7983;50.744;7.086;2023-12-28T00:21:10;1.70;;;1.15;;
15764;SDS011;7983;50.744;7.086;2023-12-28T00:23:35;1.63;;;1.10;;
15764;SDS011;7983;50.744;7.086;2023-12-28T00:26:03;1.52;;;1.20;;
15764;SDS011;7983;50.744;7.086;2023-12-28T00:28:29;1.95;;;1.05;;
15764;SDS011;7983;50.744;7.086;2023-12-28T00:30:54;2.08;;;1.20;;
15764;SDS011;7983;50.744;7.086;2023-12-28T00:33:22;1.67;;;1.02;;
15764;SDS011;7983;50.744;7.086;2023-12-28T00:35:50;3.20;;;1.00;;
15764;SDS011;7983;50.744;7.086;2023-12-28T00:38:16;2.13;;;1.33;;
15764;SDS011;7983;50.744;7.086;2023-12-28T00:40:44;1.80;;;1.20;;
15764;SDS011;7983;50.744;7.086;2023-12-28T00:43:12;1.92;;;1.10;;
15764;SDS011;7983;50.744;7.086;2023-12-28T00:45:37;1.58;;;1.20;;
15764;SDS011;7983;50.744;7.086;2023-12-28T00:48:08;1.20;;;0.88;;
15764;SDS011;7983;50.744;7.086;2023-12-28T00:50:33;1.73;;;0.80;;
15764;SDS011;7983;50.744;7.086;2023-12-28T00:52:59;1.77;;;1.00;;
15764;SDS011;7983;50.744;7.086;2023-12-28T00:55:27;1.88;;;1.00;;
15764;SDS011;7983;50.744;7.086;2023-12-28T00:57:52;1.13;;;0.90;;
15764;SDS011;7983;50.744;7.086;2023-12-28T01:00:18;1.70;;;0.98;;
15764;SDS011;7983;50.744;7.086;2023-12-28T01:02:44;1.00;;;0.90;;
15764;SDS011;7983;50.744;7.086;2023-12-28T01:05:12;1.10;;;0.90;;
15764;SDS011;7983;50.744;7.086;2023-12-28T01:07:38;1.10;;;0.98;;
15764;SDS011;7983;50.744;7.086;2023-12-28T01:10:03;1.25;;;0.98;;
15764;SDS011;7983;50.744;7.086;2023-12-28T01:12:32;1.00;;;0.88;;
15764;SDS011;7983;50.744;7.086;2023-12-28T01:14:58;1.67;;;1.00;;
15764;SDS011;7983;50.744;7.086;2023-12-28T01:17:26;0.90;;;0.70;;
15764;SDS011;7983;50.744;7.086;2023-12-28T01:19:52;1.25;;;0.80;;
15764;SDS011;7983;50.744;7.086;2023-12-28T01:22:17;0.95;;;0.70;;
15764;SDS011;7983;50.744;7.086;2023-12-28T01:24:45;1.60;;;1.10;;
15764;SDS011;7983;50.744;7.086;2023-12-28T01:27:12;2.25;;;0.85;;
15764;SDS011;7983;50.744;7.086;2023-12-28T01:29:39;1.35;;;0.82;;
15764;SDS011;7983;50.744;7.086;2023-12-28T01:32:05;0.95;;;0.70;;
15764;SDS011;7983;50.744;7.086;2023-12-28T01:34:31;0.80;;;0.70;;
15764;SDS011;7983;50.744;7.086;2023-12-28T01:36:56;1.38;;;0.70;;
15764;SDS011;7983;50.744;7.086;2023-12-28T01:39:25;1.65;;;0.82;;
15764;SDS011;7983;50.744;7.086;2023-12-28T01:41:51;1.17;;;0.90;;
15764;SDS011;7983;50.744;7.086;2023-12-28T01:44:16;0.90;;;0.80;;
15764;SDS011;7983;50.744;7.086;2023-12-28T01:46:42;1.42;;;0.88;;
15764;SDS011;7983;50.744;7.086;2023-12-28T01:49:07;1.08;;;0.80;;
15764;SDS011;7983;50.744;7.086;2023-12-28T01:51:36;1.23;;;0.90;;
15764;SDS011;7983;50.744;7.086;2023-12-28T01:54:02;1.20;;;1.05;;
15764;SDS011;7983;50.744;7.086;2023-12-28T01:56:28;1.05;;;0.80;;
15764;SDS011;7983;50.744;7.086;2023-12-28T01:58:54;0.90;;;0.70;;
15764;SDS011;7983;50.744;7.086;2023-12-28T02:01:22;1.13;;;0.80;;
15764;SDS011;7983;50.744;7.086;2023-12-28T02:03:51;0.75;;;0.75;;
15764;SDS011;7983;50.744;7.086;2023-12-28T02:06:17;1.45;;;1.10;;
15764;SDS011;7983;50.744;7.086;2023-12-28T02:08:44;1.10;;;0.90;;
15764;SDS011;7983;50.744;7.086;2023-12-28T02:11:09;1.25;;;0.80;;
15764;SDS011;7983;50.744;7.086;2023-12-28T02:13:35;1.40;;;0.90;;
15764;SDS011;7983;50.744;7.086;2023-12-28T02:16:28;1.00;;;0.70;;
15764;SDS011;7983;50.744;7.086;2023-12-28T02:19:13;0.85;;;0.73;;
15764;SDS011;7983;50.744;7.086;2023-12-28T02:21:54;1.20;;;0.88;;
15764;SDS011;7983;50.744;7.086;2023-12-28T02:24:20;1.42;;;0.85;;
15764;SDS011;7983;50.744;7.086;2023-12-28T02:26:45;1.23;;;1.00;;
15764;SDS011;7983;50.744;7.086;2023-12-28T02:29:16;0.88;;;0.68;;
15764;SDS011;7983;50.744;7.086;2023-12-28T02:31:58;1.15;;;0.77;;
15764;SDS011;7983;50.744;7.086;2023-12-28T02:34:32;1.20;;;0.70;;
15764;SDS011;7983;50.744;7.086;2023-12-28T02:37:05;1.05;;;0.90;;
15764;SDS011;7983;50.744;7.086;2023-12-28T02:39:34;0.90;;;0.70;;
15764;SDS011;7983;50.744;7.086;2023-12-28T02:42:01;0.80;;;0.63;;
15764;SDS011;7983;50.744;7.086;2023-12-28T02:44:26;1.10;;;0.98;;
15764;SDS011;7983;50.744;7.086;2023-12-28T02:46:52;1.40;;;0.90;;
15764;SDS011;7983;50.744;7.086;2023-12-28T02:49:18;1.15;;;0.90;;
15764;SDS011;7983;50.744;7.086;2023-12-28T02:51:43;0.88;;;0.80;;
15764;SDS011;7983;50.744;7.086;2023-12-28T02:54:12;0.80;;;0.80;;
15764;SDS011;7983;50.744;7.086;2023-12-28T02:56:39;1.02;;;0.90;;
15764;SDS011;7983;50.744;7.086;2023-12-28T02:59:08;1.73;;;0.80;;
15764;SDS011;7983;50.744;7.086;2023-12-28T03:01:36;1.23;;;0.90;;
15764;SDS011;7983;50.744;7.086;2023-12-28T03:04:01;1.42;;;0.90;;
15764;SDS011;7983;50.744;7.086;2023-12-28T03:06:34;0.98;;;0.77;;
15764;SDS011;7983;50.744;7.086;2023-12-28T03:09:00;1.42;;;0.90;;
15764;SDS011;7983;50.744;7.086;2023-12-28T03:11:26;0.95;;;0.70;;
15764;SDS011;7983;50.744;7.086;2023-12-28T03:13:51;1.10;;;0.98;;
15764;SDS011;7983;50.744;7.086;2023-12-28T03:16:19;1.58;;;0.90;;
15764;SDS011;7983;50.744;7.086;2023-12-28T03:18:49;1.65;;;1.00;;
15764;SDS011;7983;50.744;7.086;2023-12-28T03:21:15;1.42;;;0.90;;
15764;SDS011;7983;50.744;7.086;2023-12-28T03:23:41;0.63;;;0.60;;
15764;SDS011;7983;50.744;7.086;2023-12-28T03:26:08;1.10;;;0.80;;
15764;SDS011;7983;50.744;7.086;2023-12-28T03:28:34;1.20;;;0.80;;
15764;SDS011;7983;50.744;7.086;2023-12-28T03:31:02;1.20;;;0.80;;
15764;SDS011;7983;50.744;7.086;2023-12-28T03:33:32;1.15;;;1.00;;
15764;SDS011;7983;50.744;7.086;2023-12-28T03:35:58;1.05;;;0.95;;
15764;SDS011;7983;50.744;7.086;2023-12-28T03:38:24;1.35;;;0.90;;
15764;SDS011;7983;50.744;7.086;2023-12-28T03:40:49;0.85;;;0.80;;
15764;SDS011;7983;50.744;7.086;2023-12-28T03:43:17;1.10;;;0.90;;
15764;SDS011;7983;50.744;7.086;2023-12-28T03:45:45;1.10;;;0.75;;
15764;SDS011;7983;50.744;7.086;2023-12-28T03:48:13;1.45;;;0.90;;
15764;SDS011;7983;50.744;7.086;2023-12-28T03:50:38;0.88;;;0.70;;
15764;SDS011;7983;50.744;7.086;2023-12-28T03:53:09;1.33;;;0.80;;
15764;SDS011;7983;50.744;7.086;2023-12-28T03:55:36;1.85;;;1.10;;
15764;SDS011;7983;50.744;7.086;2023-12-28T03:58:02;2.28;;;0.98;;
15764;SDS011;7983;50.744;7.086;2023-12-28T04:00:28;0.68;;;0.68;;
15764;SDS011;7983;50.744;7.086;2023-12-28T04:02:53;1.40;;;0.90;;
15764;SDS011;7983;50.744;7.086;2023-12-28T04:05:23;1.48;;;1.00;;
15764;SDS011;7983;50.744;7.086;2023-12-28T04:07:49;1.30;;;1.10;;
15764;SDS011;7983;50.744;7.086;2023-12-28T04:10:27;2.35;;;1.88;;
15764;SDS011;7983;50.744;7.086;2023-12-28T04:12:57;2.72;;;1.67;;
15764;SDS011;7983;50.744;7.086;2023-12-28T04:15:26;2.10;;;1.40;;
15764;SDS011;7983;50.744;7.086;2023-12-28T04:17:52;1.38;;;1.20;;
15764;SDS011;7983;50.744;7.086;2023-12-28T04:20:20;2.65;;;1.20;;
15764;SDS011;7983;50.744;7.086;2023-12-28T04:22:48;1.70;;;1.30;;
15764;SDS011;7983;50.744;7.086;2023-12-28T04:25:16;2.15;;;1.30;;
15764;SDS011;7983;50.744;7.086;2023-12-28T04:27:41;1.60;;;1.00;;
15764;SDS011;7983;50.744;7.086;2023-12-28T04:30:11;2.00;;;1.10;;
15764;SDS011;7983;50.744;7.086;2023-12-28T04:32:39;1.45;;;1.00;;
15764;SDS011;7983;50.744;7.086;2023-12-28T04:35:07;1.48;;;1.05;;
15764;SDS011;7983;50.744;7.086;2023-12-28T04:37:35;1.67;;;1.10;;
15764;SDS011;7983;50.744;7.086;2023-12-28T04:40:01;1.30;;;0.90;;
15764;SDS011;7983;50.744;7.086;2023-12-28T04:42:28;1.70;;;1.00;;
15764;SDS011;7983;50.744;7.086;2023-12-28T04:44:54;1.50;;;1.20;;
15764;SDS011;7983;50.744;7.086;2023-12-28T04:47:22;1.30;;;1.08;;
15764;SDS011;7983;50.744;7.086;2023-12-28T04:49:48;1.00;;;0.90;;
15764;SDS011;7983;50.744;7.086;2023-12-28T04:52:15;1.38;;;1.05;;
15764;SDS011;7983;50.744;7.086;2023-12-28T04:54:43;2.25;;;1.10;;
15764;SDS011;7983;50.744;7.086;2023-12-28T04:57:09;2.10;;;1.20;;
15764;SDS011;7983;50.744;7.086;2023-12-28T04:59:40;1.40;;;0.98;;
15764;SDS011;7983;50.744;7.086;2023-12-28T05:02:06;2.13;;;1.20;;
15764;SDS011;7983;50.744;7.086;2023-12-28T05:04:33;1.00;;;0.80;;
15764;SDS011;7983;50.744;7.086;2023-12-28T05:07:02;1.27;;;1.00;;
15764;SDS011;7983;50.744;7.086;2023-12-28T05:09:30;2.10;;;1.10;;
15764;SDS011;7983;50.744;7.086;2023-12-28T05:11:56;1.30;;;1.10;;
15764;SDS011;7983;50.744;7.086;2023-12-28T05:14:24;1.52;;;1.00;;
15764;SDS011;7983;50.744;7.086;2023-12-28T05:16:52;1.55;;;1.17;;
15764;SDS011;7983;50.744;7.086;2023-12-28T05:19:18;1.05;;;0.85;;
15764;SDS011;7983;50.744;7.086;2023-12-28T05:21:43;2.97;;;1.00;;
15764;SDS011;7983;50.744;7.086;2023-12-28T05:24:09;1.60;;;1.08;;
15764;SDS011;7983;50.744;7.086;2023-12-28T05:26:37;1.13;;;0.90;;
15764;SDS011;7983;50.744;7.086;2023-12-28T05:29:05;1.23;;;0.90;;
15764;SDS011;7983;50.744;7.086;2023-12-28T05:31:35;1.40;;;1.08;;
15764;SDS011;7983;50.744;7.086;2023-12-28T05:34:06;1.60;;;1.10;;
15764;SDS011;7983;50.744;7.086;2023-12-28T05:36:34;0.95;;;0.82;;
15764;SDS011;7983;50.744;7.086;2023-12-28T05:38:59;1.30;;;0.90;;
15764;SDS011;7983;50.744;7.086;2023-12-28T05:41:25;1.30;;;1.00;;
15764;SDS011;7983;50.744;7.086;2023-12-28T05:43:51;1.52;;;0.95;;
15764;SDS011;7983;50.744;7.086;2023-12-28T05:46:16;1.50;;;1.00;;
15764;SDS011;7983;50.744;7.086;2023-12-28T05:48:44;1.95;;;0.82;;
15764;SDS011;7983;50.744;7.086;2023-12-28T05:51:10;2.72;;;1.00;;
15764;SDS011;7983;50.744;7.086;2023-12-28T05:53:38;1.63;;;1.10;;
15764;SDS011;7983;50.744;7.086;2023-12-28T05:56:08;1.77;;;1.10;;
15764;SDS011;7983;50.744;7.086;2023-12-28T05:58:34;1.58;;;0.95;;
15764;SDS011;7983;50.744;7.086;2023-12-28T06:00:59;1.00;;;0.90;;
15764;SDS011;7983;50.744;7.086;2023-12-28T06:03:30;1.48;;;0.93;;
15764;SDS011;7983;50.744;7.086;2023-12-28T06:05:58;2.38;;;0.98;;
15764;SDS011;7983;50.744;7.086;2023-12-28T06:08:25;1.20;;;0.90;;
15764;SDS011;7983;50.744;7.086;2023-12-28T06:10:52;2.83;;;1.20;;
15764;SDS011;7983;50.744;7.086;2023-12-28T06:13:21;1.77;;;1.00;;
15764;SDS011;7983;50.744;7.086;2023-12-28T06:15:48;1.52;;;1.00;;
15764;SDS011;7983;50.744;7.086;2023-12-28T06:18:14;2.80;;;0.95;;
15764;SDS011;7983;50.744;7.086;2023-12-28T06:20:40;2.08;;;1.20;;
15764;SDS011;7983;50.744;7.086;2023-12-28T06:23:10;1.38;;;0.90;;
15764;SDS011;7983;50.744;7.086;2023-12-28T06:25:38;1.00;;;0.80;;
15764;SDS011;7983;50.744;7.086;2023-12-28T06:28:05;1.40;;;0.82;;
15764;SDS011;7983;50.744;7.086;2023-12-28T06:30:33;1.13;;;0.90;;
15764;SDS011;7983;50.744;7.086;2023-12-28T06:33:01;1.52;;;1.10;;
15764;SDS011;7983;50.744;7.086;2023-12-28T06:35:29;1.35;;;1.02;;
15764;SDS011;7983;50.744;7.086;2023-12-28T06:37:57;1.95;;;1.20;;
15764;SDS011;7983;50.744;7.086;2023-12-28T06:40:23;1.70;;;1.20;;
15764;SDS011;7983;50.744;7.086;2023-12-28T06:42:48;2.03;;;1.10;;
15764;SDS011;7983;50.744;7.086;2023-12-28T06:45:14;1.60;;;1.20;;
15764;SDS011;7983;50.744;7.086;2023-12-28T06:47:40;2.63;;;1.35;;
15764;SDS011;7983;50.744;7.086;2023-12-28T06:50:06;1.33;;;1.10;;
15764;SDS011;7983;50.744;7.086;2023-12-28T06:52:34;2.42;;;1.23;;
15764;SDS011;7983;50.744;7.086;2023-12-28T06:54:59;2.90;;;1.35;;
15764;SDS011;7983;50.744;7.086;2023-12-28T06:57:27;2.20;;;1.42;;
15764;SDS011;7983;50.744;7.086;2023-12-28T06:59:55;1.88;;;1.20;;
15764;SDS011;7983;50.744;7.086;2023-12-28T07:02:26;1.60;;;1.20;;
15764;SDS011;7983;50.744;7.086;2023-12-28T07:04:54;2.00;;;1.10;;
15764;SDS011;7983;50.744;7.086;2023-12-28T07:07:21;1.23;;;1.00;;
15764;SDS011;7983;50.744;7.086;2023-12-28T07:09:47;1.10;;;0.80;;
15764;SDS011;7983;50.744;7.086;2023-12-28T07:12:13;1.38;;;1.00;;
15764;SDS011;7983;50.744;7.086;2023-12-28T07:14:38;2.20;;;1.23;;
15764;SDS011;7983;50.744;7.086;2023-12-28T07:17:04;1.30;;;0.90;;
15764;SDS011;7983;50.744;7.086;2023-12-28T07:19:29;2.55;;;1.00;;
15764;SDS011;7983;50.744;7.086;2023-12-28T07:21:57;1.13;;;1.00;;
15764;SDS011;7983;50.744;7.086;2023-12-28T07:24:23;4.57;;;1.70;;
15764;SDS011;7983;50.744;7.086;2023-12-28T07:26:49;1.83;;;1.00;;
15764;SDS011;7983;50.744;7.086;2023-12-28T07:29:15;1.45;;;1.00;;
15764;SDS011;7983;50.744;7.086;2023-12-28T07:31:43;1.98;;;1.05;;
15764;SDS011;7983;50.744;7.086;2023-12-28T07:34:09;1.60;;;1.10;;
15764;SDS011;7983;50.744;7.086;2023-12-28T07:36:34;2.65;;;1.10;;
15764;SDS011;7983;50.744;7.086;2023-12-28T07:39:00;1.73;;;1.10;;
15764;SDS011;7983;50.744;7.086;2023-12-28T07:41:33;1.80;;;1.13;;
15764;SDS011;7983;50.744;7.086;2023-12-28T07:43:58;2.30;;;1.00;;
15764;SDS011;7983;50.744;7.086;2023-12-28T07:46:26;1.90;;;1.20;;
15764;SDS011;7983;50.744;7.086;2023-12-28T07:48:54;1.92;;;1.10;;
15764;SDS011;7983;50.744;7.086;2023-12-28T07:51:22;1.85;;;1.20;;
15764;SDS011;7983;50.744;7.086;2023-12-28T07:53:47;1.90;;;1.10;;
15764;SDS011;7983;50.744;7.086;2023-12-28T07:56:13;1.85;;;1.10;;
15764;SDS011;7983;50.744;7.086;2023-12-28T07:58:43;1.92;;;1.20;;
15764;SDS011;7983;50.744;7.086;2023-12-28T08:01:11;3.13;;;1.75;;
15764;SDS011;7983;50.744;7.086;2023-12-28T08:03:37;2.63;;;1.48;;
15764;SDS011;7983;50.744;7.086;2023-12-28T08:06:05;1.35;;;1.05;;
15764;SDS011;7983;50.744;7.086;2023-12-28T08:08:37;2.30;;;1.30;;
15764;SDS011;7983;50.744;7.086;2023-12-28T08:11:05;2.25;;;1.20;;
15764;SDS011;7983;50.744;7.086;2023-12-28T08:13:33;2.45;;;2.00;;
15764;SDS011;7983;50.744;7.086;2023-12-28T08:16:01;2.50;;;1.55;;
15764;SDS011;7983;50.744;7.086;2023-12-28T08:18:29;2.42;;;1.50;;
15764;SDS011;7983;50.744;7.086;2023-12-28T08:20:56;2.33;;;1.42;;
15764;SDS011;7983;50.744;7.086;2023-12-28T08:23:22;1.90;;;1.20;;
15764;SDS011;7983;50.744;7.086;2023-12-28T08:25:50;1.40;;;1.10;;
15764;SDS011;7983;50.744;7.086;2023-12-28T08:28:18;2.22;;;1.20;;
15764;SDS011;7983;50.744;7.086;2023-12-28T08:30:43;1.60;;;1.05;;
15764;SDS011;7983;50.744;7.086;2023-12-28T08:33:11;2.10;;;1.30;;
15764;SDS011;7983;50.744;7.086;2023-12-28T08:35:37;2.35;;;1.05;;
15764;SDS011;7983;50.744;7.086;2023-12-28T08:38:05;3.47;;;1.25;;
15764;SDS011;7983;50.744;7.086;2023-12-28T08:40:33;2.53;;;1.30;;
15764;SDS011;7983;50.744;7.086;2023-12-28T08:43:03;2.38;;;1.20;;
15764;SDS011;7983;50.744;7.086;2023-12-28T08:45:31;2.30;;;1.02;;
15764;SDS011;7983;50.744;7.086;2023-12-28T08:47:59;3.03;;;1.33;;
15764;SDS011;7983;50.744;7.086;2023-12-28T08:50:25;2.58;;;1.00;;
15764;SDS011;7983;50.744;7.086;2023-12-28T08:52:55;2.47;;;1.10;;
15764;SDS011;7983;50.744;7.086;2023-12-28T08:55:21;2.95;;;1.35;;
15764;SDS011;7983;50.744;7.086;2023-12-28T08:57:49;3.45;;;1.42;;
15764;SDS011;7983;50.744;7.086;2023-12-28T09:00:17;1.23;;;1.10;;
15764;SDS011;7983;50.744;7.086;2023-12-28T09:02:45;1.45;;;0.90;;
15764;SDS011;7983;50.744;7.086;2023-12-28T09:05:10;1.52;;;1.10;;
15764;SDS011;7983;50.744;7.086;2023-12-28T09:07:36;1.67;;;0.85;;
15764;SDS011;7983;50.744;7.086;2023-12-28T09:10:10;1.52;;;1.05;;
15764;SDS011;7983;50.744;7.086;2023-12-28T09:12:36;2.25;;;1.10;;
15764;SDS011;7983;50.744;7.086;2023-12-28T09:15:05;2.03;;;1.08;;
15764;SDS011;7983;50.744;7.086;2023-12-28T09:17:31;1.65;;;1.00;;
15764;SDS011;7983;50.744;7.086;2023-12-28T09:19:59;1.67;;;1.00;;
15764;SDS011;7983;50.744;7.086;2023-12-28T09:22:26;3.40;;;1.23;;
15764;SDS011;7983;50.744;7.086;2023-12-28T09:24:52;4.28;;;1.45;;
15764;SDS011;7983;50.744;7.086;2023-12-28T09:27:17;2.30;;;1.58;;
15764;SDS011;7983;50.744;7.086;2023-12-28T09:29:43;3.40;;;1.23;;
15764;SDS011;7983;50.744;7.086;2023-12-28T09:32:09;3.70;;;1.23;;
15764;SDS011;7983;50.744;7.086;2023-12-28T09:34:35;2.83;;;1.23;;
15764;SDS011;7983;50.744;7.086;2023-12-28T09:37:02;2.38;;;1.20;;
15764;SDS011;7983;50.744;7.086;2023-12-28T09:39:28;2.75;;;1.10;;
15764;SDS011;7983;50.744;7.086;2023-12-28T09:42:00;3.42;;;1.30;;
15764;SDS011;7983;50.744;7.086;2023-12-28T09:44:31;3.13;;;1.05;;
15764;SDS011;7983;50.744;7.086;2023-12-28T09:47:01;2.80;;;1.20;;
15764;SDS011;7983;50.744;7.086;2023-12-28T09:49:27;4.00;;;1.90;;
15764;SDS011;7983;50.744;7.086;2023-12-28T09:51:55;2.97;;;1.10;;
15764;SDS011;7983;50.744;7.086;2023-12-28T09:54:25;2.28;;;1.05;;
15764;SDS011;7983;50.744;7.086;2023-12-28T09:56:51;4.20;;;1.27;;
15764;SDS011;7983;50.744;7.086;2023-12-28T09:59:17;2.40;;;1.10;;
15764;SDS011;7983;50.744;7.086;2023-12-28T10:01:45;3.83;;;1.63;;
15764;SDS011;7983;50.744;7.086;2023-12-28T10:04:12;2.65;;;1.20;;
15764;SDS011;7983;50.744;7.086;2023-12-28T10:06:37;5.20;;;1.42;;
15764;SDS011;7983;50.744;7.086;2023-12-28T10:09:03;5.25;;;1.65;;
15764;SDS011;7983;50.744;7.086;2023-12-28T10:11:33;4.10;;;1.38;;
15764;SDS011;7983;50.744;7.086;2023-12-28T10:13:59;3.28;;;1.40;;
15764;SDS011;7983;50.744;7.086;2023-12-28T10:16:25;3.55;;;1.15;;
15764;SDS011;7983;50.744;7.086;2023-12-28T10:18:55;2.97;;;1.40;;
15764;SDS011;7983;50.744;7.086;2023-12-28T10:21:25;3.63;;;1.33;;
15764;SDS011;7983;50.744;7.086;2023-12-28T10:23:50;4.03;;;1.20;;
15764;SDS011;7983;50.744;7.086;2023-12-28T10:26:20;4.47;;;1.33;;
15764;SDS011;7983;50.744;7.086;2023-12-28T10:28:46;2.90;;;1.33;;
15764;SDS011;7983;50.744;7.086;2023-12-28T10:31:11;4.50;;;1.10;;
15764;SDS011;7983;50.744;7.086;2023-12-28T10:33:37;3.72;;;1.25;;
15764;SDS011;7983;50.744;7.086;2023-12-28T10:36:06;2.13;;;1.10;;
15764;SDS011;7983;50.744;7.086;2023-12-28T10:38:36;3.35;;;1.20;;
15764;SDS011;7983;50.744;7.086;2023-12-28T10:41:11;3.88;;;1.20;;
15764;SDS011;7983;50.744;7.086;2023-12-28T10:49:15;4.55;;;1.23;;
15764;SDS011;7983;50.744;7.086;2023-12-28T10:51:42;2.50;;;1.13;;
15764;SDS011;7983;50.744;7.086;2023-12-28T11:02:46;3.90;;;1.23;;
15764;SDS011;7983;50.744;7.086;2023-12-28T11:05:22;2.58;;;1.17;;
15764;SDS011;7983;50.744;7.086;2023-12-28T11:07:49;2.50;;;1.30;;
15764;SDS011;7983;50.744;7.086;2023-12-28T11:10:18;4.47;;;1.33;;
15764;SDS011;7983;50.744;7.086;2023-12-28T11:12:48;4.28;;;1.13;;
15764;SDS011;7983;50.744;7.086;2023-12-28T11:15:15;3.33;;;1.23;;
15764;SDS011;7983;50.744;7.086;2023-12-28T11:17:42;4.45;;;1.10;;
15764;SDS011;7983;50.744;7.086;2023-12-28T11:20:08;3.90;;;1.10;;
15764;SDS011;7983;50.744;7.086;2023-12-28T11:22:35;2.55;;;1.23;;
15764;SDS011;7983;50.744;7.086;2023-12-28T11:25:02;2.63;;;1.10;;
15764;SDS011;7983;50.744;7.086;2023-12-28T11:27:35;1.63;;;1.02;;
15764;SDS011;7983;50.744;7.086;2023-12-28T11:30:03;3.95;;;1.13;;
15764;SDS011;7983;50.744;7.086;2023-12-28T11:32:33;2.85;;;0.90;;
15764;SDS011;7983;50.744;7.086;2023-12-28T11:35:00;2.72;;;1.10;;
15764;SDS011;7983;50.744;7.086;2023-12-28T11:37:26;5.25;;;1.27;;
15764;SDS011;7983;50.744;7.086;2023-12-28T11:39:54;2.72;;;1.10;;
15764;SDS011;7983;50.744;7.086;2023-12-28T11:42:22;3.47;;;1.20;;
15764;SDS011;7983;50.744;7.086;2023-12-28T11:44:54;3.47;;;1.20;;
15764;SDS011;7983;50.744;7.086;2023-12-28T11:47:21;2.53;;;1.20;;
15764;SDS011;7983;50.744;7.086;2023-12-28T11:49:48;4.22;;;1.33;;
15764;SDS011;7983;50.744;7.086;2023-12-28T11:52:26;3.78;;;1.15;;
15764;SDS011;7983;50.744;7.086;2023-12-28T11:54:54;2.03;;;1.00;;
15764;SDS011;7983;50.744;7.086;2023-12-28T11:57:22;2.88;;;0.82;;
15764;SDS011;7983;50.744;7.086;2023-12-28T11:59:52;3.65;;;1.15;;
15764;SDS011;7983;50.744;7.086;2023-12-28T12:02:21;3.88;;;1.23;;
15764;SDS011;7983;50.744;7.086;2023-12-28T12:04:50;4.93;;;1.25;;
15764;SDS011;7983;50.744;7.086;2023-12-28T12:07:15;2.58;;;1.02;;
15764;SDS011;7983;50.744;7.086;2023-12-28T12:09:41;4.32;;;1.52;;
15764;SDS011;7983;50.744;7.086;2023-12-28T12:12:10;2.88;;;0.90;;
15764;SDS011;7983;50.744;7.086;2023-12-28T12:14:36;3.15;;;1.00;;
15764;SDS011;7983;50.744;7.086;2023-12-28T12:17:04;3.92;;;1.45;;
15764;SDS011;7983;50.744;7.086;2023-12-28T12:19:30;2.25;;;0.98;;
15764;SDS011;7983;50.744;7.086;2023-12-28T12:21:57;4.53;;;1.58;;
15764;SDS011;7983;50.744;7.086;2023-12-28T12:24:25;1.92;;;0.95;;
15764;SDS011;7983;50.744;7.086;2023-12-28T12:26:51;3.67;;;1.20;;
15764;SDS011;7983;50.744;7.086;2023-12-28T12:29:18;2.72;;;1.10;;
15764;SDS011;7983;50.744;7.086;2023-12-28T12:31:44;3.25;;;1.30;;
15764;SDS011;7983;50.744;7.086;2023-12-28T12:34:15;4.72;;;1.35;;
15764;SDS011;7983;50.744;7.086;2023-12-28T12:36:41;5.05;;;1.02;;
15764;SDS011;7983;50.744;7.086;2023-12-28T12:39:09;3.80;;;1.25;;
15764;SDS011;7983;50.744;7.086;2023-12-28T12:41:36;3.20;;;1.20;;
15764;SDS011;7983;50.744;7.086;2023-12-28T12:44:07;2.88;;;1.13;;
15764;SDS011;7983;50.744;7.086;2023-12-28T12:46:35;2.83;;;1.05;;
15764;SDS011;7983;50.744;7.086;2023-12-28T12:49:03;3.45;;;1.50;;
15764;SDS011;7983;50.744;7.086;2023-12-28T12:51:30;4.20;;;1.05;;
15764;SDS011;7983;50.744;7.086;2023-12-28T12:53:59;2.83;;;1.10;;
15764;SDS011;7983;50.744;7.086;2023-12-28T12:56:28;5.18;;;1.30;;
15764;SDS011;7983;50.744;7.086;2023-12-28T12:58:55;4.97;;;1.05;;
15764;SDS011;7983;50.744;7.086;2023-12-28T13:01:21;4.30;;;1.30;;
15764;SDS011;7983;50.744;7.086;2023-12-28T13:03:48;4.75;;;1.10;;
15764;SDS011;7983;50.744;7.086;2023-12-28T13:06:14;3.13;;;1.10;;
15764;SDS011;7983;50.744;7.086;2023-12-28T13:08:40;4.32;;;1.20;;
15764;SDS011;7983;50.744;7.086;2023-12-28T13:11:05;3.67;;;1.20;;
15764;SDS011;7983;50.744;7.086;2023-12-28T13:13:34;2.80;;;1.15;;
15764;SDS011;7983;50.744;7.086;2023-12-28T13:16:01;2.92;;;0.95;;
15764;SDS011;7983;50.744;7.086;2023-12-28T13:18:29;3.35;;;1.10;;
15764;SDS011;7983;50.744;7.086;2023-12-28T13:20:55;7.13;;;1.05;;
15764;SDS011;7983;50.744;7.086;2023-12-28T13:23:21;3.05;;;1.00;;
15764;SDS011;7983;50.744;7.086;2023-12-28T13:25:48;2.75;;;1.10;;
15764;SDS011;7983;50.744;7.086;2023-12-28T13:28:14;3.33;;;1.08;;
15764;SDS011;7983;50.744;7.086;2023-12-28T13:30:40;1.88;;;1.00;;
15764;SDS011;7983;50.744;7.086;2023-12-28T13:33:05;2.35;;;1.10;;
15764;SDS011;7983;50.744;7.086;2023-12-28T13:35:33;4.18;;;1.20;;
15764;SDS011;7983;50.744;7.086;2023-12-28T13:38:01;3.42;;;1.02;;
15764;SDS011;7983;50.744;7.086;2023-12-28T13:40:29;3.38;;;1.05;;
15764;SDS011;7983;50.744;7.086;2023-12-28T13:42:56;3.47;;;1.10;;
15764;SDS011;7983;50.744;7.086;2023-12-28T13:45:24;2.85;;;1.17;;
15764;SDS011;7983;50.744;7.086;2023-12-28T13:47:50;1.88;;;0.90;;
15764;SDS011;7983;50.744;7.086;2023-12-28T13:50:18;2.83;;;1.10;;
15764;SDS011;7983;50.744;7.086;2023-12-28T13:52:45;3.47;;;1.33;;
15764;SDS011;7983;50.744;7.086;2023-12-28T13:55:13;3.15;;;1.10;;
15764;SDS011;7983;50.744;7.086;2023-12-28T13:57:40;3.75;;;1.20;;
15764;SDS011;7983;50.744;7.086;2023-12-28T14:00:07;2.90;;;1.30;;
15764;SDS011;7983;50.744;7.086;2023-12-28T14:02:35;2.92;;;1.10;;
15764;SDS011;7983;50.744;7.086;2023-12-28T14:05:01;2.92;;;1.20;;
15764;SDS011;7983;50.744;7.086;2023-12-28T14:07:29;4.45;;;1.30;;
15764;SDS011;7983;50.744;7.086;2023-12-28T14:09:55;3.83;;;1.27;;
15764;SDS011;7983;50.744;7.086;2023-12-28T14:12:20;4.50;;;1.20;;
15764;SDS011;7983;50.744;7.086;2023-12-28T14:14:46;3.42;;;1.10;;
15764;SDS011;7983;50.744;7.086;2023-12-28T14:17:11;2.10;;;1.10;;
15764;SDS011;7983;50.744;7.086;2023-12-28T14:19:40;2.80;;;0.85;;
15764;SDS011;7983;50.744;7.086;2023-12-28T14:22:08;4.43;;;1.00;;
15764;SDS011;7983;50.744;7.086;2023-12-28T14:24:36;2.22;;;0.95;;
15764;SDS011;7983;50.744;7.086;2023-12-28T14:27:04;2.67;;;1.00;;
15764;SDS011;7983;50.744;7.086;2023-12-28T14:29:30;3.17;;;1.15;;
15764;SDS011;7983;50.744;7.086;2023-12-28T14:31:56;2.58;;;0.90;;
15764;SDS011;7983;50.744;7.086;2023-12-28T14:34:25;3.13;;;0.90;;
15764;SDS011;7983;50.744;7.086;2023-12-28T14:36:52;2.95;;;1.00;;
15764;SDS011;7983;50.744;7.086;2023-12-28T14:39:18;2.67;;;1.00;;
15764;SDS011;7983;50.744;7.086;2023-12-28T14:41:44;2.20;;;0.90;;
15764;SDS011;7983;50.744;7.086;2023-12-28T14:44:10;3.47;;;0.98;;
15764;SDS011;7983;50.744;7.086;2023-12-28T14:46:37;4.65;;;1.13;;
15764;SDS011;7983;50.744;7.086;2023-12-28T14:49:03;2.83;;;0.93;;
15764;SDS011;7983;50.744;7.086;2023-12-28T14:51:29;2.30;;;0.98;;
15764;SDS011;7983;50.744;7.086;2023-12-28T14:53:57;3.47;;;1.23;;
15764;SDS011;7983;50.744;7.086;2023-12-28T14:56:28;2.55;;;1.13;;
15764;SDS011;7983;50.744;7.086;2023-12-28T14:58:56;2.47;;;1.10;;
15764;SDS011;7983;50.744;7.086;2023-12-28T15:01:22;2.58;;;1.00;;
15764;SDS011;7983;50.744;7.086;2023-12-28T15:03:47;2.38;;;1.00;;
15764;SDS011;7983;50.744;7.086;2023-12-28T15:06:13;2.40;;;1.02;;
15764;SDS011;7983;50.744;7.086;2023-12-28T15:08:39;6.00;;;1.02;;
15764;SDS011;7983;50.744;7.086;2023-12-28T15:11:05;3.83;;;1.10;;
15764;SDS011;7983;50.744;7.086;2023-12-28T15:13:38;2.53;;;1.10;;
15764;SDS011;7983;50.744;7.086;2023-12-28T15:16:04;2.95;;;0.80;;